createdAt,value
2024-01-15T00:01:49.176Z,996.20
2024-01-15T00:07:04.460Z,996.13
2024-01-15T00:12:19.104Z,996.09
2024-01-15T00:17:33.986Z,996.04
2024-01-15T00:22:48.941Z,995.96
2024-01-15T00:28:03.832Z,995.88
2024-01-15T00:33:20.944Z,995.72
2024-01-15T00:38:35.601Z,995.71
2024-01-15T00:43:50.740Z,995.74
2024-01-15T00:49:05.584Z,995.71
2024-01-15T00:54:20.443Z,995.70
2024-01-15T00:59:35.420Z,995.73
2024-01-15T01:04:50.268Z,995.72
2024-01-15T01:10:05.290Z,995.74
2024-01-15T01:15:20.200Z,995.68
2024-01-15T01:20:35.070Z,995.69
2024-01-15T01:25:55.534Z,995.62
2024-01-15T01:31:04.795Z,995.56
2024-01-15T01:36:19.892Z,995.51
2024-01-15T01:41:34.649Z,995.56
2024-01-15T01:46:51.668Z,995.60
2024-01-15T01:52:06.560Z,995.68
2024-01-15T01:57:21.669Z,995.67
2024-01-15T02:02:36.710Z,995.66
2024-01-15T02:07:51.435Z,995.58
2024-01-15T02:13:06.577Z,995.61
2024-01-15T02:18:21.620Z,995.61
2024-01-15T02:23:38.315Z,995.54
2024-01-15T02:28:51.282Z,995.52
2024-01-15T02:34:06.308Z,995.51
2024-01-15T02:39:21.068Z,995.50
2024-01-15T02:44:35.985Z,995.56
2024-01-15T02:49:51.013Z,995.54
2024-01-15T02:55:05.746Z,995.53
2024-01-15T03:00:21.955Z,995.53
2024-01-15T03:05:35.561Z,995.61
2024-01-15T03:10:50.347Z,995.58
2024-01-15T03:16:05.268Z,995.46
2024-01-15T03:21:20.270Z,995.41
2024-01-15T03:26:35.235Z,995.45
2024-01-15T03:31:50.348Z,995.39
2024-01-15T03:37:05.407Z,995.45
2024-01-15T03:42:29.392Z,995.41
2024-01-15T03:47:36.328Z,995.38
2024-01-15T03:52:52.006Z,995.42
2024-01-15T03:58:07.080Z,995.31
2024-01-15T04:03:23.624Z,995.22
2024-01-15T04:08:37.188Z,995.18
2024-01-15T04:13:51.833Z,995.08
2024-01-15T04:19:09.115Z,995.06
2024-01-15T04:24:23.738Z,995.12
2024-01-15T04:29:40.922Z,995.07
2024-01-15T04:34:52.338Z,995.02
2024-01-15T04:40:07.338Z,995.03
2024-01-15T04:45:24.174Z,994.98
2024-01-15T04:50:37.001Z,994.96
2024-01-15T04:55:51.827Z,994.98
2024-01-15T05:01:07.099Z,994.85
2024-01-15T05:06:21.841Z,994.84
2024-01-15T05:11:36.587Z,994.86
2024-01-15T05:16:51.578Z,994.82
2024-01-15T05:22:06.416Z,994.80
2024-01-15T05:27:21.370Z,994.77
2024-01-15T05:32:36.313Z,994.79
2024-01-15T05:37:51.265Z,994.79
2024-01-15T05:43:06.275Z,994.78
2024-01-15T05:48:21.438Z,994.77
2024-01-15T05:53:36.174Z,994.74
2024-01-15T05:58:51.943Z,994.70
2024-01-15T06:04:06.211Z,994.69
2024-01-15T06:09:20.950Z,994.62
2024-01-15T06:14:36.287Z,994.53
2024-01-15T06:19:51.136Z,994.42
2024-01-15T06:25:05.788Z,994.38
2024-01-15T06:30:21.022Z,994.44
2024-01-15T06:35:35.690Z,994.40
2024-01-15T06:40:53.880Z,994.36
2024-01-15T06:46:07.719Z,994.42
2024-01-15T06:51:20.391Z,994.40
2024-01-15T06:56:35.251Z,994.29
2024-01-15T07:01:50.372Z,994.31
2024-01-15T07:07:05.365Z,994.37
2024-01-15T07:12:20.206Z,994.24
2024-01-15T07:17:34.983Z,994.23
2024-01-15T07:22:50.015Z,994.21
2024-01-15T07:28:05.158Z,994.24
2024-01-15T07:33:20.228Z,994.20
2024-01-15T07:38:35.047Z,994.22
2024-01-15T07:43:49.972Z,994.22
2024-01-15T07:49:05.207Z,994.24
2024-01-15T07:54:19.859Z,994.43
2024-01-15T07:59:34.779Z,994.46
2024-01-15T08:04:49.819Z,994.32
2024-01-15T08:10:04.735Z,994.27
2024-01-15T08:15:19.851Z,994.23
2024-01-15T08:20:34.720Z,994.30
2024-01-15T08:25:49.906Z,994.25
2024-01-15T08:31:04.930Z,994.21
2024-01-15T08:36:19.645Z,994.20
2024-01-15T08:41:34.651Z,994.26
2024-01-15T08:46:49.678Z,994.24
2024-01-15T08:52:04.439Z,994.31
2024-01-15T08:57:19.582Z,994.37
2024-01-15T09:02:34.480Z,994.52
2024-01-15T09:07:49.450Z,994.64
2024-01-15T09:13:04.489Z,994.64
2024-01-15T09:18:19.360Z,994.73
2024-01-15T09:23:34.172Z,994.78
2024-01-15T09:28:49.207Z,994.77
2024-01-15T09:34:04.372Z,994.79
2024-01-15T09:39:19.216Z,994.83
2024-01-15T09:44:34.021Z,994.83
2024-01-15T09:49:49.094Z,994.84
2024-01-15T09:55:04.062Z,994.97
2024-01-15T10:00:21.114Z,995.02
2024-01-15T10:05:36.089Z,995.01
2024-01-15T10:10:51.081Z,995.00
2024-01-15T10:16:06.079Z,995.02
2024-01-15T10:21:20.962Z,995.08
2024-01-15T10:26:35.867Z,995.11
2024-01-15T10:31:50.944Z,995.08
2024-01-15T10:37:05.730Z,995.02
2024-01-15T10:42:20.633Z,995.02
2024-01-15T10:47:35.744Z,994.99
2024-01-15T10:52:50.612Z,994.90
2024-01-15T10:58:05.500Z,994.88
2024-01-15T11:03:20.396Z,994.92
2024-01-15T11:08:35.152Z,994.89
2024-01-15T11:13:50.021Z,994.88
2024-01-15T11:19:05.046Z,994.91
2024-01-15T11:24:19.875Z,994.91
2024-01-15T11:29:34.694Z,994.89
2024-01-15T11:34:49.860Z,994.92
2024-01-15T11:40:04.624Z,994.98
2024-01-15T11:45:19.621Z,994.95
2024-01-15T11:50:34.591Z,994.88
2024-01-15T11:55:49.669Z,994.81
2024-01-15T12:01:04.644Z,994.82
2024-01-15T12:06:19.684Z,994.88
2024-01-15T12:11:34.534Z,994.87
2024-01-15T12:16:49.605Z,994.85
2024-01-15T12:22:04.322Z,994.87
2024-01-15T12:27:19.252Z,995.02
2024-01-15T12:32:36.124Z,995.08
2024-01-15T12:37:50.943Z,995.09
2024-01-15T12:43:05.713Z,995.22
2024-01-15T12:48:21.603Z,995.16
2024-01-15T12:53:35.583Z,995.19
2024-01-15T12:58:52.550Z,995.21
2024-01-15T13:04:07.405Z,995.21
2024-01-15T13:09:22.286Z,995.31
2024-01-15T13:14:38.727Z,995.30
2024-01-15T13:19:52.291Z,995.38
2024-01-15T13:25:07.167Z,995.35
2024-01-15T13:30:25.666Z,995.35
2024-01-15T13:35:39.209Z,995.35
2024-01-15T13:40:54.086Z,995.33
2024-01-15T13:46:09.015Z,995.41
2024-01-15T13:51:24.009Z,995.41
2024-01-15T13:56:38.861Z,995.42
2024-01-15T14:01:53.857Z,995.45
2024-01-15T14:07:08.953Z,995.54
2024-01-15T14:12:23.886Z,995.69
2024-01-15T14:17:39.048Z,995.73
2024-01-15T14:22:53.757Z,995.85
2024-01-15T14:28:08.702Z,995.97
2024-01-15T14:33:23.851Z,995.98
2024-01-15T14:38:38.757Z,996.05
2024-01-15T14:43:53.810Z,996.23
2024-01-15T14:49:08.929Z,996.29
2024-01-15T14:54:24.965Z,996.34
2024-01-15T14:59:38.976Z,996.47
2024-01-15T15:04:54.055Z,996.56
2024-01-15T15:10:08.921Z,996.62
2024-01-15T15:15:25.329Z,996.67
2024-01-15T15:20:38.890Z,996.71
2024-01-15T15:25:53.887Z,996.73
2024-01-15T15:31:08.895Z,996.84
2024-01-15T15:36:23.941Z,996.98
2024-01-15T15:41:38.861Z,997.05
2024-01-15T15:46:53.701Z,997.16
2024-01-15T15:52:08.700Z,997.17
2024-01-15T15:57:23.759Z,997.25
2024-01-15T16:02:38.749Z,997.34
2024-01-15T16:07:53.642Z,997.48
2024-01-15T16:13:08.747Z,997.47
2024-01-15T16:23:20.753Z,997.51
2024-01-15T16:24:07.476Z,997.65
2024-01-15T16:28:54.908Z,997.70
2024-01-15T16:34:10.797Z,997.72
2024-01-15T16:39:23.966Z,997.77
2024-01-15T16:44:38.707Z,997.81
2024-01-15T16:49:53.483Z,997.87
2024-01-15T16:55:08.517Z,997.89
2024-01-15T17:00:23.764Z,997.99
2024-01-15T17:05:38.219Z,998.04
2024-01-15T17:10:53.029Z,998.09
2024-01-15T17:16:07.872Z,998.08
2024-01-15T17:21:23.024Z,998.11
2024-01-15T17:26:41.670Z,998.18
2024-01-15T17:31:52.901Z,998.29
2024-01-15T17:37:09.806Z,998.35
2024-01-15T17:42:25.032Z,998.39
2024-01-15T17:47:39.960Z,998.48
2024-01-15T17:52:54.831Z,998.55
2024-01-15T17:58:09.582Z,998.68
2024-01-15T18:03:24.554Z,998.75
2024-01-15T18:08:39.539Z,998.79
2024-01-15T18:13:54.389Z,998.83
2024-01-15T18:19:09.321Z,998.94
2024-01-15T18:24:24.301Z,999.03
2024-01-15T18:29:39.442Z,998.98
2024-01-15T18:34:54.645Z,999.00
2024-01-15T18:40:09.305Z,999.09
2024-01-15T18:45:24.071Z,999.17
2024-01-15T18:50:39.215Z,999.16
2024-01-15T18:55:54.256Z,999.19
2024-01-15T19:01:09.081Z,999.28
2024-01-15T19:06:23.887Z,999.30
2024-01-15T19:11:39.280Z,999.36
2024-01-15T19:16:53.829Z,999.45
2024-01-15T19:22:08.605Z,999.57
2024-01-15T19:27:23.550Z,999.56
2024-01-15T19:32:38.590Z,999.51
2024-01-15T19:37:53.453Z,999.64
2024-01-15T19:43:08.505Z,999.63
2024-01-15T19:48:23.518Z,999.73
2024-01-15T19:53:38.664Z,999.80
2024-01-15T19:58:53.447Z,999.90
2024-01-15T20:04:08.510Z,999.98
2024-01-15T20:09:23.550Z,1000.03
2024-01-15T20:14:38.681Z,999.96
2024-01-15T20:19:53.480Z,1000.06
2024-01-15T20:25:08.343Z,1000.10
2024-01-15T20:30:23.173Z,1000.09
2024-01-15T20:35:38.156Z,1000.22
2024-01-15T20:40:53.117Z,1000.28
2024-01-15T20:46:07.941Z,1000.36
2024-01-15T20:51:24.808Z,1000.36
2024-01-15T20:56:39.843Z,1000.40
2024-01-15T21:01:54.625Z,1000.44
2024-01-15T21:07:09.457Z,1000.43
2024-01-15T21:12:26.289Z,1000.49
2024-01-15T21:17:41.388Z,1000.47
2024-01-15T21:22:56.302Z,1000.51
2024-01-15T21:28:11.144Z,1000.50
2024-01-15T21:33:26.136Z,1000.54
2024-01-15T21:38:41.190Z,1000.61
2024-01-15T21:43:56.252Z,1000.62
2024-01-15T21:49:11.070Z,1000.62
2024-01-15T21:54:25.812Z,1000.54
2024-01-15T21:59:40.740Z,1000.54
2024-01-15T22:04:55.545Z,1000.61
2024-01-15T22:10:10.732Z,1000.72
2024-01-15T22:15:25.495Z,1000.70
2024-01-15T22:20:40.467Z,1000.82
2024-01-15T22:25:55.486Z,1000.88
2024-01-15T22:31:10.347Z,1000.96
2024-01-15T22:36:25.238Z,1000.95
2024-01-15T22:41:40.069Z,1000.93
2024-01-15T22:46:55.092Z,1000.94
2024-01-15T22:52:09.992Z,1001.04
2024-01-15T22:57:25.063Z,1001.14
2024-01-15T23:02:40.233Z,1001.18
2024-01-15T23:07:55.067Z,1001.23
2024-01-15T23:24:01.853Z,1001.41
